Photometre #543[NE_1.6] Beijing-CAMS AOT

File : 20200924_543.hum

24/09/2020,00:00:03,TEMP=17.3,BA=5.60,STAT.A=16.0,ExtBa=12.46
24/09/2020,00:09:29,TEMP=17.6,BA=5.60,STAT.A=16.0,ExtBa=12.48
24/09/2020,00:20:46,TEMP=18.0,BA=5.64,STAT.A=16.0,ExtBa=12.48
24/09/2020,00:33:22,TEMP=18.5,BA=5.64,STAT.D=16.0,ExtBa=12.49
24/09/2020,00:35:13,TEMP=18.9,BA=5.64,STAT.A=16.0,ExtBa=12.44
24/09/2020,00:48:22,TEMP=19.2,BA=5.64,STAT.D=16.0,ExtBa=12.49
24/09/2020,00:52:09,TEMP=19.6,BA=5.64,STAT.B=16.0,ExtBa=12.47
24/09/2020,01:03:22,TEMP=20.2,BA=5.64,STAT.D=16.0,ExtBa=12.48
24/09/2020,01:07:08,TEMP=20.5,BA=5.64,STAT.F,ExtBa=12.46
24/09/2020,01:18:22,TEMP=20.7,BA=5.64,STAT.D=16.0,ExtBa=12.47
24/09/2020,01:22:06,TEMP=20.8,BA=5.64,STAT.D=16.0,ExtBa=12.44
24/09/2020,01:33:22,TEMP=20.9,BA=5.64,STAT.D=16.0,ExtBa=12.45
24/09/2020,01:37:06,TEMP=21.2,BA=5.64,STAT.D=16.0,ExtBa=12.42
24/09/2020,01:48:22,TEMP=21.8,BA=5.64,STAT.D=16.0,ExtBa=12.44
24/09/2020,01:52:06,TEMP=22.2,BA=5.64,STAT.D=16.0,ExtBa=12.42
24/09/2020,02:03:22,TEMP=22.7,BA=5.64,STAT.D=16.0,ExtBa=12.45
24/09/2020,02:07:08,TEMP=22.9,BA=5.64,STAT.F,ExtBa=12.41
24/09/2020,02:18:22,TEMP=23.0,BA=5.64,STAT.D=16.5,ExtBa=12.45
24/09/2020,02:22:06,TEMP=23.2,BA=5.64,STAT.D=16.0,ExtBa=12.42
24/09/2020,02:33:22,TEMP=23.7,BA=5.64,STAT.D=16.5,ExtBa=12.44
24/09/2020,02:37:06,TEMP=24.0,BA=5.64,STAT.D=16.0,ExtBa=12.42
24/09/2020,02:48:23,TEMP=24.2,BA=5.64,STAT.D=16.5,ExtBa=12.43
24/09/2020,02:52:07,TEMP=24.4,BA=5.64,STAT.D=16.0,ExtBa=12.42
24/09/2020,03:03:23,TEMP=24.9,BA=5.64,STAT.D=16.5,ExtBa=12.44
24/09/2020,03:07:08,TEMP=25.3,BA=5.64,STAT.F,ExtBa=12.40
24/09/2020,03:22:07,TEMP=26.4,BA=5.64,STAT.D=16.5,ExtBa=12.37
24/09/2020,03:33:23,TEMP=26.9,BA=5.64,STAT.D=16.5,ExtBa=12.40
24/09/2020,03:37:07,TEMP=27.1,BA=5.64,STAT.D=16.5,ExtBa=12.38
24/09/2020,03:48:23,TEMP=27.3,BA=5.64,STAT.D=16.5,ExtBa=12.41
24/09/2020,03:52:07,TEMP=27.6,BA=5.60,STAT.D=16.5,ExtBa=12.37
24/09/2020,04:03:23,TEMP=27.6,BA=5.64,STAT.D=16.5,ExtBa=12.40
24/09/2020,04:06:23,TEMP=27.8,BA=5.64,STAT.D=16.5,ExtBa=12.37
24/09/2020,04:08:15,TEMP=28.1,BA=5.64,STAT.F,ExtBa=12.34
24/09/2020,04:21:23,TEMP=28.5,BA=5.64,STAT.D=16.5,ExtBa=12.40
24/09/2020,04:23:14,TEMP=28.9,BA=5.64,STAT.D=16.5,ExtBa=12.35
24/09/2020,04:27:23,TEMP=28.9,BA=5.64,STAT.D=16.5,ExtBa=12.37
24/09/2020,04:30:23,TEMP=28.9,BA=5.64,STAT.D=16.5,ExtBa=12.36
24/09/2020,04:33:23,TEMP=28.8,BA=5.64,STAT.D=16.5,ExtBa=12.35
24/09/2020,04:36:23,TEMP=28.9,BA=5.64,STAT.D=16.5,ExtBa=12.35
24/09/2020,04:38:14,TEMP=29.3,BA=5.64,STAT.D=16.5,ExtBa=12.34
24/09/2020,04:42:23,TEMP=29.3,BA=5.52,STAT.D=16.5,ExtBa=12.35
24/09/2020,04:45:23,TEMP=29.8,BA=5.52,STAT.D=16.5,ExtBa=12.35
24/09/2020,04:48:23,TEMP=30.3,BA=5.52,STAT.D=16.5,ExtBa=12.35
24/09/2020,04:51:23,TEMP=30.6,BA=5.60,STAT.D=16.0,ExtBa=12.34
24/09/2020,04:53:16,TEMP=30.7,BA=5.60,STAT.D=16.0,ExtBa=12.33
24/09/2020,04:57:23,TEMP=30.0,BA=5.60,STAT.D=16.5,ExtBa=12.34
24/09/2020,05:00:23,TEMP=29.7,BA=5.64,STAT.D=16.5,ExtBa=12.34
24/09/2020,05:03:23,TEMP=29.7,BA=5.64,STAT.D=16.5,ExtBa=12.34
24/09/2020,05:06:23,TEMP=29.8,BA=5.64,STAT.D=16.5,ExtBa=12.34
24/09/2020,05:08:15,TEMP=30.1,BA=5.64,STAT.F,ExtBa=12.32
24/09/2020,05:23:13,TEMP=30.5,BA=5.52,STAT.D=16.5,ExtBa=12.31
24/09/2020,05:27:23,TEMP=30.7,BA=5.52,STAT.D=16.5,ExtBa=12.33
24/09/2020,05:30:23,TEMP=30.8,BA=5.64,STAT.D=16.5,ExtBa=12.33
24/09/2020,05:33:23,TEMP=30.9,BA=5.64,STAT.D=16.5,ExtBa=12.32
24/09/2020,05:36:23,TEMP=30.7,BA=5.64,STAT.D=16.5,ExtBa=12.32
24/09/2020,05:38:13,TEMP=30.5,BA=5.64,STAT.D=16.0,ExtBa=12.31
24/09/2020,05:42:22,TEMP=29.8,BA=5.52,STAT.D=16.5,ExtBa=12.33
24/09/2020,05:45:22,TEMP=29.5,BA=5.52,STAT.D=16.5,ExtBa=12.32
24/09/2020,05:48:22,TEMP=29.5,BA=5.52,STAT.D=16.5,ExtBa=12.33
24/09/2020,05:51:22,TEMP=29.8,BA=5.56,STAT.D=16.5,ExtBa=12.32
24/09/2020,05:53:14,TEMP=30.2,BA=5.56,STAT.D=16.5,ExtBa=12.31
24/09/2020,05:57:22,TEMP=30.2,BA=5.56,STAT.D=16.5,ExtBa=12.33
24/09/2020,06:00:22,TEMP=30.3,BA=5.64,STAT.D=16.5,ExtBa=12.33
24/09/2020,06:03:22,TEMP=30.4,BA=5.64,STAT.D=16.5,ExtBa=12.32
24/09/2020,06:06:22,TEMP=30.6,BA=5.64,STAT.D=16.5,ExtBa=12.32
24/09/2020,06:08:15,TEMP=30.9,BA=5.64,STAT.F,ExtBa=12.30
24/09/2020,06:22:57,TEMP=31.4,BA=5.48,STAT.D=16.5,ExtBa=12.29
24/09/2020,06:27:22,TEMP=31.3,BA=5.48,STAT.D=16.5,ExtBa=12.31
24/09/2020,06:30:22,TEMP=31.5,BA=5.64,STAT.D=16.5,ExtBa=12.31
24/09/2020,06:33:22,TEMP=31.5,BA=5.64,STAT.D=16.5,ExtBa=12.31
24/09/2020,06:36:22,TEMP=31.4,BA=5.64,STAT.D=16.5,ExtBa=12.31
24/09/2020,06:38:13,TEMP=31.6,BA=5.64,STAT.D=16.5,ExtBa=12.29
24/09/2020,06:42:22,TEMP=31.3,BA=5.48,STAT.D=16.5,ExtBa=12.31
24/09/2020,06:45:22,TEMP=31.4,BA=5.48,STAT.D=16.5,ExtBa=12.30
24/09/2020,06:48:22,TEMP=31.5,BA=5.48,STAT.D=16.5,ExtBa=12.30
24/09/2020,06:51:22,TEMP=31.6,BA=5.56,STAT.D=16.5,ExtBa=12.30
24/09/2020,06:53:14,TEMP=31.9,BA=5.56,STAT.D=16.5,ExtBa=12.29
24/09/2020,06:57:22,TEMP=31.8,BA=5.56,STAT.D=16.5,ExtBa=12.30
24/09/2020,07:00:22,TEMP=31.9,BA=5.64,STAT.D=16.5,ExtBa=12.30
24/09/2020,07:03:22,TEMP=31.9,BA=5.64,STAT.D=16.5,ExtBa=12.30
24/09/2020,07:06:22,TEMP=31.8,BA=5.64,STAT.D=16.5,ExtBa=12.31
24/09/2020,07:08:16,TEMP=31.9,BA=5.64,STAT.F,ExtBa=12.28
24/09/2020,07:23:23,TEMP=30.5,BA=5.48,STAT.B=16.5,ExtBa=12.23
24/09/2020,07:33:22,TEMP=30.4,BA=5.48,STAT.D=16.5,ExtBa=12.22
24/09/2020,07:36:22,TEMP=30.5,BA=5.48,STAT.D=16.5,ExtBa=12.23
24/09/2020,07:39:22,TEMP=30.6,BA=5.48,STAT.D=16.5,ExtBa=12.24
24/09/2020,07:41:14,TEMP=30.8,BA=5.52,STAT.A=16.5,ExtBa=12.22
24/09/2020,07:45:22,TEMP=30.7,BA=5.52,STAT.D=16.5,ExtBa=12.25
24/09/2020,07:48:22,TEMP=30.9,BA=5.52,STAT.D=16.5,ExtBa=12.24
24/09/2020,07:51:22,TEMP=31.0,BA=5.56,STAT.D=16.5,ExtBa=12.24
24/09/2020,07:53:28,TEMP=31.1,BA=5.56,STAT.A=16.0,ExtBa=12.23
24/09/2020,07:57:22,TEMP=30.7,BA=5.56,STAT.D=16.5,ExtBa=12.24
24/09/2020,08:00:22,TEMP=30.6,BA=5.64,STAT.D=16.5,ExtBa=12.24
24/09/2020,08:03:22,TEMP=30.5,BA=5.64,STAT.D=16.5,ExtBa=12.23
24/09/2020,08:05:14,TEMP=30.5,BA=5.64,STAT.A=16.5,ExtBa=12.21
24/09/2020,08:09:22,TEMP=29.9,BA=5.64,STAT.D=16.5,ExtBa=12.24
24/09/2020,08:12:21,TEMP=29.8,BA=5.52,STAT.D=16.5,ExtBa=12.23
24/09/2020,08:14:14,TEMP=29.9,BA=5.52,STAT.A=16.5,ExtBa=12.21
24/09/2020,08:18:21,TEMP=29.6,BA=5.52,STAT.D=16.5,ExtBa=12.24
24/09/2020,08:21:21,TEMP=29.6,BA=5.56,STAT.D=16.5,ExtBa=12.23
24/09/2020,08:23:14,TEMP=29.7,BA=5.56,STAT.C=16.0,ExtBa=12.21
24/09/2020,08:38:19,TEMP=28.1,BA=5.48,STAT.A=16.5,ExtBa=12.23
24/09/2020,08:40:26,TEMP=28.0,BA=5.48,STAT.A=16.5,ExtBa=12.23
24/09/2020,08:42:28,TEMP=27.9,BA=5.48,STAT.A=16.0,ExtBa=12.22
24/09/2020,08:45:03,TEMP=27.7,BA=5.48,STAT.A=16.5,ExtBa=12.21
24/09/2020,08:48:21,TEMP=27.4,BA=5.48,STAT.D=16.5,ExtBa=12.21
24/09/2020,08:50:18,TEMP=27.5,BA=5.48,STAT.B=16.5,ExtBa=12.20
24/09/2020,09:00:10,TEMP=26.7,BA=5.44,STAT.A=16.5,ExtBa=12.24
24/09/2020,09:03:21,TEMP=26.6,BA=5.44,STAT.D=16.5,ExtBa=12.22
24/09/2020,09:05:15,TEMP=26.7,BA=5.44,STAT.A=16.5,ExtBa=12.21
24/09/2020,09:09:21,TEMP=26.1,BA=5.44,STAT.D=16.5,ExtBa=12.21
24/09/2020,09:11:12,TEMP=26.1,BA=5.48,STAT.A=16.5,ExtBa=12.19
24/09/2020,09:15:11,TEMP=25.5,BA=5.48,STAT.A=16.5,ExtBa=12.21
24/09/2020,09:19:07,TEMP=25.0,BA=5.48,STAT.A=16.5,ExtBa=12.22
24/09/2020,09:22:28,TEMP=24.7,BA=5.48,STAT.A=16.5,ExtBa=12.21
24/09/2020,22:52:45,TEMP=15.8,BA=5.64,STAT.A=16.0,ExtBa=12.51
24/09/2020,22:56:07,TEMP=16.2,BA=5.64,STAT.A=16.0,ExtBa=12.48
24/09/2020,23:00:02,TEMP=16.4,BA=5.64,STAT.A=16.0,ExtBa=12.47
24/09/2020,23:04:43,TEMP=16.7,BA=5.60,STAT.A=16.0,ExtBa=12.46
24/09/2020,23:09:21,TEMP=17.0,BA=5.60,STAT.D=16.0,ExtBa=12.44
24/09/2020,23:11:17,TEMP=17.4,BA=5.60,STAT.A=16.0,ExtBa=12.41
24/09/2020,23:17:17,TEMP=17.5,BA=5.60,STAT.A=16.0,ExtBa=12.43
24/09/2020,23:21:21,TEMP=17.8,BA=5.64,STAT.D=16.0,ExtBa=12.42
24/09/2020,23:24:21,TEMP=18.0,BA=5.64,STAT.D=16.0,ExtBa=12.40
24/09/2020,23:26:13,TEMP=18.4,BA=5.64,STAT.B=16.0,ExtBa=12.37
24/09/2020,23:35:58,TEMP=18.9,BA=5.52,STAT.A=16.0,ExtBa=12.32
24/09/2020,23:38:00,TEMP=19.2,BA=5.52,STAT.A=16.0,ExtBa=12.32
24/09/2020,23:40:14,TEMP=19.4,BA=5.56,STAT.A=16.0,ExtBa=12.32
24/09/2020,23:42:21,TEMP=19.7,BA=5.56,STAT.D=16.0,ExtBa=12.32
24/09/2020,23:45:21,TEMP=19.9,BA=5.56,STAT.D=16.0,ExtBa=12.33
24/09/2020,23:47:14,TEMP=20.2,BA=5.56,STAT.A=16.0,ExtBa=12.31
24/09/2020,23:51:21,TEMP=20.4,BA=5.64,STAT.D=16.0,ExtBa=12.33
24/09/2020,23:53:14,TEMP=20.8,BA=5.64,STAT.C=16.0,ExtBa=12.30